sensor_id;sensor_type;location;lat;lon;timestamp;temperature;humidity
67279;DHT22;54193;53.746;10.058;2022-08-03T00:02:21;18.66;79.82
67279;DHT22;54193;53.746;10.058;2022-08-03T00:05:07;18.56;79.94
67279;DHT22;54193;53.746;10.058;2022-08-03T00:07:52;18.54;80.36
67279;DHT22;54193;53.746;10.058;2022-08-03T00:10:38;18.48;80.74
67279;DHT22;54193;53.746;10.058;2022-08-03T00:13:24;18.40;80.94
67279;DHT22;54193;53.746;10.058;2022-08-03T00:16:10;18.35;81.03
67279;DHT22;54193;53.746;10.058;2022-08-03T00:18:56;18.34;80.92
67279;DHT22;54193;53.746;10.058;2022-08-03T00:21:42;18.33;81.01
67279;DHT22;54193;53.746;10.058;2022-08-03T00:24:27;18.30;81.19
67279;DHT22;54193;53.746;10.058;2022-08-03T00:27:13;18.31;81.08
67279;DHT22;54193;53.746;10.058;2022-08-03T00:29:59;18.27;81.04
67279;DHT22;54193;53.746;10.058;2022-08-03T00:32:44;18.23;81.08
67279;DHT22;54193;53.746;10.058;2022-08-03T00:35:30;18.18;81.26
67279;DHT22;54193;53.746;10.058;2022-08-03T00:38:17;18.21;81.14
67279;DHT22;54193;53.746;10.058;2022-08-03T00:41:03;18.14;81.26
67279;DHT22;54193;53.746;10.058;2022-08-03T00:43:48;18.13;81.29
67279;DHT22;54193;53.746;10.058;2022-08-03T00:46:34;18.11;81.45
67279;DHT22;54193;53.746;10.058;2022-08-03T00:49:20;18.04;81.67
67279;DHT22;54193;53.746;10.058;2022-08-03T00:52:12;18.03;81.80
67279;DHT22;54193;53.746;10.058;2022-08-03T00:54:59;18.03;81.71
67279;DHT22;54193;53.746;10.058;2022-08-03T00:57:45;17.99;81.69
67279;DHT22;54193;53.746;10.058;2022-08-03T01:00:34;17.97;81.38
67279;DHT22;54193;53.746;10.058;2022-08-03T01:03:23;17.97;81.66
67279;DHT22;54193;53.746;10.058;2022-08-03T01:06:16;18.00;81.64
67279;DHT22;54193;53.746;10.058;2022-08-03T01:09:16;18.06;81.22
67279;DHT22;54193;53.746;10.058;2022-08-03T01:12:12;18.09;80.91
67279;DHT22;54193;53.746;10.058;2022-08-03T01:15:16;18.10;80.96
67279;DHT22;54193;53.746;10.058;2022-08-03T01:18:17;18.09;80.68
67279;DHT22;54193;53.746;10.058;2022-08-03T01:21:09;18.21;80.63
67279;DHT22;54193;53.746;10.058;2022-08-03T01:24:21;18.26;80.28
67279;DHT22;54193;53.746;10.058;2022-08-03T01:27:14;18.31;79.68
67279;DHT22;54193;53.746;10.058;2022-08-03T01:30:07;18.48;78.73
67279;DHT22;54193;53.746;10.058;2022-08-03T01:32:59;18.64;77.63
67279;DHT22;54193;53.746;10.058;2022-08-03T01:35:58;18.76;77.37
67279;DHT22;54193;53.746;10.058;2022-08-03T01:38:59;18.82;77.08
67279;DHT22;54193;53.746;10.058;2022-08-03T01:41:50;18.86;76.75
67279;DHT22;54193;53.746;10.058;2022-08-03T01:44:40;18.93;76.46
67279;DHT22;54193;53.746;10.058;2022-08-03T01:47:28;18.98;76.71
67279;DHT22;54193;53.746;10.058;2022-08-03T01:50:17;19.00;76.21
67279;DHT22;54193;53.746;10.058;2022-08-03T01:53:05;18.98;76.35
67279;DHT22;54193;53.746;10.058;2022-08-03T01:55:53;19.00;76.63
67279;DHT22;54193;53.746;10.058;2022-08-03T01:58:43;18.98;76.21
67279;DHT22;54193;53.746;10.058;2022-08-03T02:01:30;19.00;76.43
67279;DHT22;54193;53.746;10.058;2022-08-03T02:04:17;19.00;76.55
67279;DHT22;54193;53.746;10.058;2022-08-03T02:07:02;19.00;76.08
67279;DHT22;54193;53.746;10.058;2022-08-03T02:09:50;19.00;75.97
67279;DHT22;54193;53.746;10.058;2022-08-03T02:12:37;18.92;76.51
67279;DHT22;54193;53.746;10.058;2022-08-03T02:15:26;18.88;76.28
67279;DHT22;54193;53.746;10.058;2022-08-03T02:18:13;18.82;76.62
67279;DHT22;54193;53.746;10.058;2022-08-03T02:21:00;18.75;76.70
67279;DHT22;54193;53.746;10.058;2022-08-03T02:23:46;18.71;76.80
67279;DHT22;54193;53.746;10.058;2022-08-03T02:26:34;18.71;76.99
67279;DHT22;54193;53.746;10.058;2022-08-03T02:29:24;18.64;77.14
67279;DHT22;54193;53.746;10.058;2022-08-03T02:32:16;18.61;77.24
67279;DHT22;54193;53.746;10.058;2022-08-03T02:35:14;18.62;77.47
67279;DHT22;54193;53.746;10.058;2022-08-03T02:38:04;18.69;76.77
67279;DHT22;54193;53.746;10.058;2022-08-03T02:40:54;18.69;76.54
67279;DHT22;54193;53.746;10.058;2022-08-03T02:43:42;18.64;76.84
67279;DHT22;54193;53.746;10.058;2022-08-03T02:46:32;18.64;77.04
67279;DHT22;54193;53.746;10.058;2022-08-03T02:49:19;18.58;77.51
67279;DHT22;54193;53.746;10.058;2022-08-03T02:52:08;18.54;77.62
67279;DHT22;54193;53.746;10.058;2022-08-03T02:54:58;18.47;77.70
67279;DHT22;54193;53.746;10.058;2022-08-03T02:57:45;18.43;78.05
67279;DHT22;54193;53.746;10.058;2022-08-03T03:00:32;18.40;78.21
67279;DHT22;54193;53.746;10.058;2022-08-03T03:03:19;18.30;78.24
67279;DHT22;54193;53.746;10.058;2022-08-03T03:06:06;18.31;78.44
67279;DHT22;54193;53.746;10.058;2022-08-03T03:08:54;18.31;78.14
67279;DHT22;54193;53.746;10.058;2022-08-03T03:11:41;18.28;78.52
67279;DHT22;54193;53.746;10.058;2022-08-03T03:14:28;18.23;78.63
67279;DHT22;54193;53.746;10.058;2022-08-03T03:17:15;18.23;78.54
67279;DHT22;54193;53.746;10.058;2022-08-03T03:20:03;18.24;78.81
67279;DHT22;54193;53.746;10.058;2022-08-03T03:22:50;18.20;78.68
67279;DHT22;54193;53.746;10.058;2022-08-03T03:25:37;18.18;78.98
67279;DHT22;54193;53.746;10.058;2022-08-03T03:28:23;18.20;78.90
67279;DHT22;54193;53.746;10.058;2022-08-03T03:31:09;18.16;79.07
67279;DHT22;54193;53.746;10.058;2022-08-03T03:33:56;18.13;79.16
67279;DHT22;54193;53.746;10.058;2022-08-03T03:36:43;18.16;79.16
67279;DHT22;54193;53.746;10.058;2022-08-03T03:39:28;18.18;79.09
67279;DHT22;54193;53.746;10.058;2022-08-03T03:42:14;18.07;79.01
67279;DHT22;54193;53.746;10.058;2022-08-03T03:45:04;17.96;79.24
67279;DHT22;54193;53.746;10.058;2022-08-03T03:47:50;17.89;79.65
67279;DHT22;54193;53.746;10.058;2022-08-03T03:50:36;17.86;80.22
67279;DHT22;54193;53.746;10.058;2022-08-03T03:53:25;17.79;80.61
67279;DHT22;54193;53.746;10.058;2022-08-03T03:56:11;17.71;80.94
67279;DHT22;54193;53.746;10.058;2022-08-03T03:58:57;17.72;81.48
67279;DHT22;54193;53.746;10.058;2022-08-03T04:01:43;17.72;81.52
67279;DHT22;54193;53.746;10.058;2022-08-03T04:04:31;17.83;81.14
67279;DHT22;54193;53.746;10.058;2022-08-03T04:08:03;17.93;80.72
67279;DHT22;54193;53.746;10.058;2022-08-03T04:11:25;17.96;80.55
67279;DHT22;54193;53.746;10.058;2022-08-03T04:14:16;17.86;80.64
67279;DHT22;54193;53.746;10.058;2022-08-03T04:17:05;17.80;81.33
67279;DHT22;54193;53.746;10.058;2022-08-03T04:19:52;17.79;81.65
67279;DHT22;54193;53.746;10.058;2022-08-03T04:22:39;17.85;81.45
67279;DHT22;54193;53.746;10.058;2022-08-03T04:25:30;17.91;81.20
67279;DHT22;54193;53.746;10.058;2022-08-03T04:28:18;17.96;81.16
67279;DHT22;54193;53.746;10.058;2022-08-03T04:31:05;18.04;80.79
67279;DHT22;54193;53.746;10.058;2022-08-03T04:33:52;18.18;80.46
67279;DHT22;54193;53.746;10.058;2022-08-03T04:36:46;18.27;80.10
67279;DHT22;54193;53.746;10.058;2022-08-03T04:39:34;18.33;79.71
67279;DHT22;54193;53.746;10.058;2022-08-03T04:42:21;18.47;78.88
67279;DHT22;54193;53.746;10.058;2022-08-03T04:45:11;18.56;78.67
67279;DHT22;54193;53.746;10.058;2022-08-03T04:47:57;18.62;78.73
67279;DHT22;54193;53.746;10.058;2022-08-03T04:50:45;18.69;78.46
67279;DHT22;54193;53.746;10.058;2022-08-03T04:53:30;18.75;78.27
67279;DHT22;54193;53.746;10.058;2022-08-03T04:56:16;18.71;78.22
67279;DHT22;54193;53.746;10.058;2022-08-03T04:59:02;18.71;78.47
67279;DHT22;54193;53.746;10.058;2022-08-03T05:01:48;18.85;78.14
67279;DHT22;54193;53.746;10.058;2022-08-03T05:04:33;18.88;78.13
67279;DHT22;54193;53.746;10.058;2022-08-03T05:07:19;18.96;77.92
67279;DHT22;54193;53.746;10.058;2022-08-03T05:10:07;19.02;77.83
67279;DHT22;54193;53.746;10.058;2022-08-03T05:12:53;19.07;77.24
67279;DHT22;54193;53.746;10.058;2022-08-03T05:15:39;19.21;76.95
67279;DHT22;54193;53.746;10.058;2022-08-03T05:18:25;19.32;76.69
67279;DHT22;54193;53.746;10.058;2022-08-03T05:21:11;19.35;76.88
67279;DHT22;54193;53.746;10.058;2022-08-03T05:24:01;19.50;76.47
67279;DHT22;54193;53.746;10.058;2022-08-03T05:26:47;19.53;76.38
67279;DHT22;54193;53.746;10.058;2022-08-03T05:29:32;19.62;75.77
67279;DHT22;54193;53.746;10.058;2022-08-03T05:32:18;19.75;75.53
67279;DHT22;54193;53.746;10.058;2022-08-03T05:35:05;19.87;74.93
67279;DHT22;54193;53.746;10.058;2022-08-03T05:37:51;20.03;74.94
67279;DHT22;54193;53.746;10.058;2022-08-03T05:40:36;20.12;74.26
67279;DHT22;54193;53.746;10.058;2022-08-03T05:43:22;20.19;74.27
67279;DHT22;54193;53.746;10.058;2022-08-03T05:46:08;20.32;74.18
67279;DHT22;54193;53.746;10.058;2022-08-03T05:48:54;20.41;73.10
67279;DHT22;54193;53.746;10.058;2022-08-03T05:51:39;20.55;72.43
67279;DHT22;54193;53.746;10.058;2022-08-03T05:54:25;20.67;72.50
67279;DHT22;54193;53.746;10.058;2022-08-03T05:57:11;20.72;72.76
67279;DHT22;54193;53.746;10.058;2022-08-03T05:59:57;20.88;71.44
67279;DHT22;54193;53.746;10.058;2022-08-03T06:02:43;20.96;71.01
67279;DHT22;54193;53.746;10.058;2022-08-03T06:05:28;21.05;71.14
67279;DHT22;54193;53.746;10.058;2022-08-03T06:08:14;21.36;69.55
67279;DHT22;54193;53.746;10.058;2022-08-03T06:11:00;21.39;70.12
67279;DHT22;54193;53.746;10.058;2022-08-03T06:13:45;21.54;69.31
67279;DHT22;54193;53.746;10.058;2022-08-03T06:16:31;21.78;68.80
67279;DHT22;54193;53.746;10.058;2022-08-03T06:19:18;22.05;68.11
67279;DHT22;54193;53.746;10.058;2022-08-03T06:22:04;22.30;67.14
67279;DHT22;54193;53.746;10.058;2022-08-03T06:24:49;22.71;66.52
67279;DHT22;54193;53.746;10.058;2022-08-03T06:27:35;23.02;65.23
67279;DHT22;54193;53.746;10.058;2022-08-03T06:30:24;23.30;64.41
67279;DHT22;54193;53.746;10.058;2022-08-03T06:33:10;23.50;64.17
67279;DHT22;54193;53.746;10.058;2022-08-03T06:35:55;23.73;63.50
67279;DHT22;54193;53.746;10.058;2022-08-03T06:38:41;23.94;63.13
67279;DHT22;54193;53.746;10.058;2022-08-03T06:41:27;24.39;61.95
67279;DHT22;54193;53.746;10.058;2022-08-03T06:44:13;24.56;61.02
67279;DHT22;54193;53.746;10.058;2022-08-03T06:46:58;24.63;60.89
67279;DHT22;54193;53.746;10.058;2022-08-03T06:49:44;24.79;60.39
67279;DHT22;54193;53.746;10.058;2022-08-03T06:52:30;24.94;59.92
67279;DHT22;54193;53.746;10.058;2022-08-03T06:55:16;24.98;60.25
67279;DHT22;54193;53.746;10.058;2022-08-03T06:58:02;25.35;58.60
67279;DHT22;54193;53.746;10.058;2022-08-03T07:00:48;25.68;58.27
67279;DHT22;54193;53.746;10.058;2022-08-03T07:03:33;25.99;57.52
67279;DHT22;54193;53.746;10.058;2022-08-03T07:06:19;26.18;56.73
67279;DHT22;54193;53.746;10.058;2022-08-03T07:09:05;26.14;56.08
67279;DHT22;54193;53.746;10.058;2022-08-03T07:11:51;26.10;55.67
67279;DHT22;54193;53.746;10.058;2022-08-03T07:14:37;26.40;54.78
67279;DHT22;54193;53.746;10.058;2022-08-03T07:17:22;26.28;54.85
67279;DHT22;54193;53.746;10.058;2022-08-03T07:20:08;26.73;54.13
67279;DHT22;54193;53.746;10.058;2022-08-03T07:22:54;27.26;54.40
67279;DHT22;54193;53.746;10.058;2022-08-03T07:25:40;27.30;52.85
67279;DHT22;54193;53.746;10.058;2022-08-03T07:28:25;27.14;53.07
67279;DHT22;54193;53.746;10.058;2022-08-03T07:31:11;27.29;52.89
67279;DHT22;54193;53.746;10.058;2022-08-03T07:33:57;27.23;52.46
67279;DHT22;54193;53.746;10.058;2022-08-03T07:36:42;27.27;53.13
67279;DHT22;54193;53.746;10.058;2022-08-03T07:39:28;27.86;50.88
67279;DHT22;54193;53.746;10.058;2022-08-03T07:42:13;27.72;50.92
67279;DHT22;54193;53.746;10.058;2022-08-03T07:44:59;27.59;51.76
67279;DHT22;54193;53.746;10.058;2022-08-03T07:47:45;28.02;50.56
67279;DHT22;54193;53.746;10.058;2022-08-03T07:50:30;28.13;49.63
67279;DHT22;54193;53.746;10.058;2022-08-03T07:53:16;28.44;49.64
67279;DHT22;54193;53.746;10.058;2022-08-03T07:56:02;28.41;49.42
67279;DHT22;54193;53.746;10.058;2022-08-03T07:58:47;28.79;47.81
67279;DHT22;54193;53.746;10.058;2022-08-03T08:01:33;28.94;47.25
67279;DHT22;54193;53.746;10.058;2022-08-03T08:04:21;28.77;48.75
67279;DHT22;54193;53.746;10.058;2022-08-03T08:07:07;28.90;48.39
67279;DHT22;54193;53.746;10.058;2022-08-03T08:09:52;28.72;47.72
67279;DHT22;54193;53.746;10.058;2022-08-03T08:12:38;29.13;48.30
67279;DHT22;54193;53.746;10.058;2022-08-03T08:15:24;28.68;48.12
67279;DHT22;54193;53.746;10.058;2022-08-03T08:18:10;28.92;47.66
67279;DHT22;54193;53.746;10.058;2022-08-03T08:20:57;28.79;50.07
67279;DHT22;54193;53.746;10.058;2022-08-03T08:23:42;29.06;49.27
67279;DHT22;54193;53.746;10.058;2022-08-03T08:26:28;29.36;48.47
67279;DHT22;54193;53.746;10.058;2022-08-03T08:29:14;29.34;48.41
67279;DHT22;54193;53.746;10.058;2022-08-03T08:31:59;29.77;47.87
67279;DHT22;54193;53.746;10.058;2022-08-03T08:34:45;30.43;46.53
67279;DHT22;54193;53.746;10.058;2022-08-03T08:37:32;30.32;45.16
67279;DHT22;54193;53.746;10.058;2022-08-03T08:40:22;30.67;46.13
67279;DHT22;54193;53.746;10.058;2022-08-03T08:43:07;30.42;47.12
67279;DHT22;54193;53.746;10.058;2022-08-03T08:45:54;30.18;45.44
67279;DHT22;54193;53.746;10.058;2022-08-03T08:48:43;30.04;47.45
67279;DHT22;54193;53.746;10.058;2022-08-03T08:51:30;30.94;44.73
67279;DHT22;54193;53.746;10.058;2022-08-03T08:54:20;30.77;45.62
67279;DHT22;54193;53.746;10.058;2022-08-03T08:57:08;30.73;47.04
67279;DHT22;54193;53.746;10.058;2022-08-03T08:59:55;30.04;47.04
67279;DHT22;54193;53.746;10.058;2022-08-03T09:02:43;30.01;47.92
67279;DHT22;54193;53.746;10.058;2022-08-03T09:05:29;30.49;45.90
67279;DHT22;54193;53.746;10.058;2022-08-03T09:08:17;29.81;47.01
67279;DHT22;54193;53.746;10.058;2022-08-03T09:11:02;30.76;45.83
67279;DHT22;54193;53.746;10.058;2022-08-03T09:13:48;29.76;47.75
67279;DHT22;54193;53.746;10.058;2022-08-03T09:16:34;30.55;45.83
67279;DHT22;54193;53.746;10.058;2022-08-03T09:19:20;31.01;44.91
67279;DHT22;54193;53.746;10.058;2022-08-03T09:22:13;30.92;44.25
67279;DHT22;54193;53.746;10.058;2022-08-03T09:25:04;30.84;45.23
67279;DHT22;54193;53.746;10.058;2022-08-03T09:27:51;31.94;43.64
67279;DHT22;54193;53.746;10.058;2022-08-03T09:30:39;31.11;45.24
67279;DHT22;54193;53.746;10.058;2022-08-03T09:33:24;31.29;46.33
67279;DHT22;54193;53.746;10.058;2022-08-03T09:36:37;32.14;42.69
67279;DHT22;54193;53.746;10.058;2022-08-03T09:39:25;32.25;43.17
67279;DHT22;54193;53.746;10.058;2022-08-03T09:42:15;32.34;43.47
67279;DHT22;54193;53.746;10.058;2022-08-03T09:45:01;31.97;43.11
67279;DHT22;54193;53.746;10.058;2022-08-03T09:47:47;32.13;45.39
67279;DHT22;54193;53.746;10.058;2022-08-03T09:50:47;32.32;43.70
67279;DHT22;54193;53.746;10.058;2022-08-03T09:53:42;31.38;46.18
67279;DHT22;54193;53.746;10.058;2022-08-03T09:56:43;31.21;45.40
67279;DHT22;54193;53.746;10.058;2022-08-03T09:59:30;32.01;45.72
67279;DHT22;54193;53.746;10.058;2022-08-03T10:02:21;31.55;44.87
67279;DHT22;54193;53.746;10.058;2022-08-03T10:05:10;32.10;44.79
67279;DHT22;54193;53.746;10.058;2022-08-03T10:07:56;31.55;45.45
67279;DHT22;54193;53.746;10.058;2022-08-03T10:10:45;31.10;46.03
67279;DHT22;54193;53.746;10.058;2022-08-03T10:13:31;31.73;46.48
67279;DHT22;54193;53.746;10.058;2022-08-03T10:16:18;30.47;49.31
67279;DHT22;54193;53.746;10.058;2022-08-03T10:19:05;30.73;47.69
67279;DHT22;54193;53.746;10.058;2022-08-03T10:21:55;31.24;47.09
67279;DHT22;54193;53.746;10.058;2022-08-03T10:24:48;30.57;46.13
67279;DHT22;54193;53.746;10.058;2022-08-03T10:27:39;29.98;46.95
67279;DHT22;54193;53.746;10.058;2022-08-03T10:30:26;30.55;48.08
67279;DHT22;54193;53.746;10.058;2022-08-03T10:33:23;30.22;49.91
67279;DHT22;54193;53.746;10.058;2022-08-03T10:36:12;29.97;49.71
67279;DHT22;54193;53.746;10.058;2022-08-03T10:38:58;29.61;51.31
67279;DHT22;54193;53.746;10.058;2022-08-03T10:41:45;30.12;49.46
67279;DHT22;54193;53.746;10.058;2022-08-03T10:44:36;30.35;50.46
67279;DHT22;54193;53.746;10.058;2022-08-03T10:47:23;29.91;48.26
67279;DHT22;54193;53.746;10.058;2022-08-03T10:50:10;29.73;50.41
67279;DHT22;54193;53.746;10.058;2022-08-03T10:55:45;29.76;50.53
67279;DHT22;54193;53.746;10.058;2022-08-03T10:58:51;29.97;48.70
67279;DHT22;54193;53.746;10.058;2022-08-03T11:01:52;30.11;50.22
67279;DHT22;54193;53.746;10.058;2022-08-03T11:04:39;30.09;48.62
67279;DHT22;54193;53.746;10.058;2022-08-03T11:07:25;29.97;48.59
67279;DHT22;54193;53.746;10.058;2022-08-03T11:10:29;29.77;49.59
67279;DHT22;54193;53.746;10.058;2022-08-03T11:13:17;29.84;50.48
67279;DHT22;54193;53.746;10.058;2022-08-03T11:16:18;29.85;49.38
67279;DHT22;54193;53.746;10.058;2022-08-03T11:19:09;29.81;47.61
67279;DHT22;54193;53.746;10.058;2022-08-03T11:21:55;29.92;48.48
67279;DHT22;54193;53.746;10.058;2022-08-03T11:27:33;30.18;48.40
67279;DHT22;54193;53.746;10.058;2022-08-03T11:33:04;29.89;48.25
67279;DHT22;54193;53.746;10.058;2022-08-03T11:36:00;30.16;49.42
67279;DHT22;54193;53.746;10.058;2022-08-03T11:39:13;30.35;48.41
67279;DHT22;54193;53.746;10.058;2022-08-03T11:41:58;30.08;47.80
67279;DHT22;54193;53.746;10.058;2022-08-03T11:44:45;30.02;47.40
67279;DHT22;54193;53.746;10.058;2022-08-03T11:47:36;30.07;47.40
67279;DHT22;54193;53.746;10.058;2022-08-03T11:50:23;30.02;48.58
67279;DHT22;54193;53.746;10.058;2022-08-03T11:53:12;29.96;48.68
67279;DHT22;54193;53.746;10.058;2022-08-03T11:56:00;30.04;47.62
67279;DHT22;54193;53.746;10.058;2022-08-03T11:58:51;29.94;47.01
67279;DHT22;54193;53.746;10.058;2022-08-03T12:01:38;30.04;47.39
67279;DHT22;54193;53.746;10.058;2022-08-03T12:04:24;30.21;46.33
67279;DHT22;54193;53.746;10.058;2022-08-03T12:07:10;30.51;45.35
67279;DHT22;54193;53.746;10.058;2022-08-03T12:10:09;30.29;47.14
67279;DHT22;54193;53.746;10.058;2022-08-03T12:12:56;30.21;45.55
67279;DHT22;54193;53.746;10.058;2022-08-03T12:15:43;29.92;47.57
67279;DHT22;54193;53.746;10.058;2022-08-03T12:18:34;29.73;45.86
67279;DHT22;54193;53.746;10.058;2022-08-03T12:21:21;30.18;45.77
67279;DHT22;54193;53.746;10.058;2022-08-03T12:24:09;30.40;45.05
67279;DHT22;54193;53.746;10.058;2022-08-03T12:26:54;30.33;49.00
67279;DHT22;54193;53.746;10.058;2022-08-03T12:29:42;30.40;46.90
67279;DHT22;54193;53.746;10.058;2022-08-03T12:32:34;30.26;46.49
67279;DHT22;54193;53.746;10.058;2022-08-03T12:35:22;30.52;46.71
67279;DHT22;54193;53.746;10.058;2022-08-03T12:38:10;30.81;46.15
67279;DHT22;54193;53.746;10.058;2022-08-03T12:40:59;30.88;47.60
67279;DHT22;54193;53.746;10.058;2022-08-03T12:43:48;31.06;45.01
67279;DHT22;54193;53.746;10.058;2022-08-03T12:46:40;30.74;45.46
67279;DHT22;54193;53.746;10.058;2022-08-03T12:49:26;30.97;46.52
67279;DHT22;54193;53.746;10.058;2022-08-03T12:52:12;30.98;46.98
67279;DHT22;54193;53.746;10.058;2022-08-03T12:54:59;31.01;45.71
67279;DHT22;54193;53.746;10.058;2022-08-03T12:57:45;31.00;46.54
67279;DHT22;54193;53.746;10.058;2022-08-03T13:00:30;31.06;47.57
67279;DHT22;54193;53.746;10.058;2022-08-03T13:03:16;30.79;46.89
67279;DHT22;54193;53.746;10.058;2022-08-03T13:06:02;30.90;47.93
67279;DHT22;54193;53.746;10.058;2022-08-03T13:08:48;31.07;44.89
67279;DHT22;54193;53.746;10.058;2022-08-03T13:11:34;31.02;46.33
67279;DHT22;54193;53.746;10.058;2022-08-03T13:14:19;31.07;46.47
67279;DHT22;54193;53.746;10.058;2022-08-03T13:17:05;30.88;45.41
67279;DHT22;54193;53.746;10.058;2022-08-03T13:19:51;31.01;45.81
67279;DHT22;54193;53.746;10.058;2022-08-03T13:22:37;30.95;45.10
67279;DHT22;54193;53.746;10.058;2022-08-03T13:25:23;30.86;45.97
67279;DHT22;54193;53.746;10.058;2022-08-03T13:28:09;31.15;46.33
67279;DHT22;54193;53.746;10.058;2022-08-03T13:30:54;30.90;45.27
67279;DHT22;54193;53.746;10.058;2022-08-03T13:33:40;30.86;46.49
67279;DHT22;54193;53.746;10.058;2022-08-03T13:36:27;31.01;45.76
67279;DHT22;54193;53.746;10.058;2022-08-03T13:39:12;31.08;45.99
67279;DHT22;54193;53.746;10.058;2022-08-03T13:41:58;30.98;46.40
67279;DHT22;54193;53.746;10.058;2022-08-03T13:44:44;31.08;46.40
67279;DHT22;54193;53.746;10.058;2022-08-03T13:47:29;31.35;45.88
67279;DHT22;54193;53.746;10.058;2022-08-03T13:50:16;31.43;44.95
67279;DHT22;54193;53.746;10.058;2022-08-03T13:53:02;31.15;44.40
67279;DHT22;54193;53.746;10.058;2022-08-03T13:55:48;30.87;45.39
67279;DHT22;54193;53.746;10.058;2022-08-03T13:58:33;30.81;46.24
67279;DHT22;54193;53.746;10.058;2022-08-03T14:01:19;30.92;45.10
67279;DHT22;54193;53.746;10.058;2022-08-03T14:04:05;30.91;46.54
67279;DHT22;54193;53.746;10.058;2022-08-03T14:06:51;30.77;45.06
67279;DHT22;54193;53.746;10.058;2022-08-03T14:09:36;30.56;45.77
67279;DHT22;54193;53.746;10.058;2022-08-03T14:12:22;30.52;45.52
67279;DHT22;54193;53.746;10.058;2022-08-03T14:15:08;30.60;46.01
67279;DHT22;54193;53.746;10.058;2022-08-03T14:17:57;30.57;45.68
67279;DHT22;54193;53.746;10.058;2022-08-03T14:20:43;30.60;46.81
67279;DHT22;54193;53.746;10.058;2022-08-03T14:23:29;30.76;45.99
67279;DHT22;54193;53.746;10.058;2022-08-03T14:26:14;30.71;46.98
67279;DHT22;54193;53.746;10.058;2022-08-03T14:29:02;30.71;45.98
67279;DHT22;54193;53.746;10.058;2022-08-03T14:31:49;30.77;46.37
67279;DHT22;54193;53.746;10.058;2022-08-03T14:34:34;30.66;46.29
67279;DHT22;54193;53.746;10.058;2022-08-03T14:37:20;30.76;46.90
67279;DHT22;54193;53.746;10.058;2022-08-03T14:40:08;30.92;45.98
67279;DHT22;54193;53.746;10.058;2022-08-03T14:42:56;30.74;45.77
67279;DHT22;54193;53.746;10.058;2022-08-03T14:45:42;30.71;46.43
67279;DHT22;54193;53.746;10.058;2022-08-03T14:48:28;30.56;46.70
67279;DHT22;54193;53.746;10.058;2022-08-03T14:51:14;30.74;46.36
67279;DHT22;54193;53.746;10.058;2022-08-03T14:53:59;30.71;45.46
67279;DHT22;54193;53.746;10.058;2022-08-03T14:56:45;30.86;45.75
67279;DHT22;54193;53.746;10.058;2022-08-03T14:59:30;30.94;45.96
67279;DHT22;54193;53.746;10.058;2022-08-03T15:02:16;30.98;46.32
67279;DHT22;54193;53.746;10.058;2022-08-03T15:05:02;30.98;46.12
67279;DHT22;54193;53.746;10.058;2022-08-03T15:07:48;30.86;46.81
67279;DHT22;54193;53.746;10.058;2022-08-03T15:10:34;31.04;45.57
67279;DHT22;54193;53.746;10.058;2022-08-03T15:13:20;31.17;45.67
67279;DHT22;54193;53.746;10.058;2022-08-03T15:16:05;30.95;45.59
67279;DHT22;54193;53.746;10.058;2022-08-03T15:18:53;30.90;46.09
67279;DHT22;54193;53.746;10.058;2022-08-03T15:21:38;30.79;45.77
67279;DHT22;54193;53.746;10.058;2022-08-03T15:24:24;30.71;46.88
67279;DHT22;54193;53.746;10.058;2022-08-03T15:27:09;30.74;46.90
67279;DHT22;54193;53.746;10.058;2022-08-03T15:29:55;30.74;45.96
67279;DHT22;54193;53.746;10.058;2022-08-03T15:32:41;30.62;46.20
67279;DHT22;54193;53.746;10.058;2022-08-03T15:35:26;30.49;47.07
67279;DHT22;54193;53.746;10.058;2022-08-03T15:38:13;30.24;46.67
67279;DHT22;54193;53.746;10.058;2022-08-03T15:40:59;30.12;47.71
67279;DHT22;54193;53.746;10.058;2022-08-03T15:43:44;30.02;47.68
67279;DHT22;54193;53.746;10.058;2022-08-03T15:46:31;29.98;48.74
67279;DHT22;54193;53.746;10.058;2022-08-03T15:49:17;30.16;47.59
67279;DHT22;54193;53.746;10.058;2022-08-03T15:52:04;30.29;47.38
67279;DHT22;54193;53.746;10.058;2022-08-03T15:54:50;30.55;47.83
67279;DHT22;54193;53.746;10.058;2022-08-03T15:57:36;30.55;46.96
67279;DHT22;54193;53.746;10.058;2022-08-03T16:00:23;30.66;46.78
67279;DHT22;54193;53.746;10.058;2022-08-03T16:03:09;30.62;46.56
67279;DHT22;54193;53.746;10.058;2022-08-03T16:05:55;30.43;46.80
67279;DHT22;54193;53.746;10.058;2022-08-03T16:08:41;30.36;46.65
67279;DHT22;54193;53.746;10.058;2022-08-03T16:11:26;30.37;48.20
67279;DHT22;54193;53.746;10.058;2022-08-03T16:14:12;30.22;46.80
67279;DHT22;54193;53.746;10.058;2022-08-03T16:16:58;30.22;47.81
67279;DHT22;54193;53.746;10.058;2022-08-03T16:19:43;30.11;47.07
67279;DHT22;54193;53.746;10.058;2022-08-03T16:22:29;30.11;48.39
67279;DHT22;54193;53.746;10.058;2022-08-03T16:25:15;30.07;47.14
67279;DHT22;54193;53.746;10.058;2022-08-03T16:28:02;30.00;47.78
67279;DHT22;54193;53.746;10.058;2022-08-03T16:30:48;29.97;48.25
67279;DHT22;54193;53.746;10.058;2022-08-03T16:33:34;29.87;47.40
67279;DHT22;54193;53.746;10.058;2022-08-03T16:36:20;29.80;47.21
67279;DHT22;54193;53.746;10.058;2022-08-03T16:39:06;29.77;47.18
67279;DHT22;54193;53.746;10.058;2022-08-03T16:41:51;29.77;47.76
67279;DHT22;54193;53.746;10.058;2022-08-03T16:44:37;29.80;47.92
67279;DHT22;54193;53.746;10.058;2022-08-03T16:47:23;29.81;47.27
67279;DHT22;54193;53.746;10.058;2022-08-03T16:50:09;29.78;47.18
67279;DHT22;54193;53.746;10.058;2022-08-03T16:52:55;29.70;48.57
67279;DHT22;54193;53.746;10.058;2022-08-03T16:55:40;29.67;47.89
67279;DHT22;54193;53.746;10.058;2022-08-03T16:58:26;29.71;48.32
67279;DHT22;54193;53.746;10.058;2022-08-03T17:01:12;29.67;48.22
67279;DHT22;54193;53.746;10.058;2022-08-03T17:03:59;29.63;48.54
67279;DHT22;54193;53.746;10.058;2022-08-03T17:06:45;29.67;49.31
67279;DHT22;54193;53.746;10.058;2022-08-03T17:09:31;29.69;48.71
67279;DHT22;54193;53.746;10.058;2022-08-03T17:12:17;29.61;50.54
67279;DHT22;54193;53.746;10.058;2022-08-03T17:15:05;29.51;50.21
67279;DHT22;54193;53.746;10.058;2022-08-03T17:18:00;29.47;49.60
67279;DHT22;54193;53.746;10.058;2022-08-03T17:20:48;29.39;49.63
67279;DHT22;54193;53.746;10.058;2022-08-03T17:24:07;29.27;50.46
67279;DHT22;54193;53.746;10.058;2022-08-03T17:26:56;29.18;51.67
67279;DHT22;54193;53.746;10.058;2022-08-03T17:29:48;29.09;50.75
67279;DHT22;54193;53.746;10.058;2022-08-03T17:32:40;29.06;50.82